createdAt,value
2023-01-12T00:01:46.122Z,100.00
2023-01-12T00:04:13.999Z,99.55
2023-01-12T00:06:41.322Z,99.19
2023-01-12T00:09:09.834Z,98.55
2023-01-12T00:11:37.745Z,97.55
2023-01-12T00:14:06.327Z,97.18
2023-01-12T00:16:39.891Z,95.72
2023-01-12T00:19:15.501Z,94.89
2023-01-12T00:21:46.315Z,94.17
2023-01-12T00:24:13.746Z,95.68
2023-01-12T00:26:40.552Z,94.88
2023-01-12T00:29:07.253Z,95.31
2023-01-12T00:31:33.989Z,95.80
2023-01-12T00:34:00.723Z,94.34
2023-01-12T00:36:27.489Z,92.98
2023-01-12T00:38:54.302Z,94.11
2023-01-12T00:41:39.706Z,94.16
2023-01-12T00:44:25.246Z,93.70
2023-01-12T00:46:53.154Z,93.51
2023-01-12T00:49:20.012Z,93.65
2023-01-12T00:51:46.902Z,91.47
2023-01-12T00:54:13.728Z,91.83
2023-01-12T00:56:40.506Z,92.22
2023-01-12T00:59:07.640Z,92.92
2023-01-12T01:01:34.981Z,94.59
2023-01-12T01:04:02.563Z,92.61
2023-01-12T01:06:29.360Z,93.14
2023-01-12T01:08:56.177Z,93.22
2023-01-12T01:11:23.147Z,93.85
2023-01-12T01:13:51.153Z,93.55
2023-01-12T01:16:18.630Z,93.51
2023-01-12T01:18:45.839Z,93.93
2023-01-12T01:21:14.389Z,94.05
2023-01-12T01:23:42.792Z,92.55
2023-01-12T01:26:13.251Z,91.81
2023-01-12T01:28:41.225Z,92.19
2023-01-12T01:31:17.427Z,91.04
2023-01-12T01:33:44.597Z,90.47
2023-01-12T01:36:12.313Z,90.90
2023-01-12T01:38:39.593Z,91.11
2023-01-12T01:41:07.606Z,91.35
2023-01-12T01:43:50.665Z,91.62
2023-01-12T01:46:27.465Z,90.76
2023-01-12T01:48:54.761Z,89.79
2023-01-12T01:51:22.349Z,89.51
2023-01-12T01:53:50.539Z,89.53
2023-01-12T01:56:25.437Z,88.93
2023-01-12T01:59:03.114Z,89.57
2023-01-12T02:01:30.155Z,89.06
2023-01-12T02:03:57.661Z,88.12
2023-01-12T02:06:26.208Z,90.91
2023-01-12T02:08:57.964Z,90.87
2023-01-12T02:11:44.502Z,89.10
2023-01-12T02:14:30.702Z,87.21
2023-01-12T02:17:09.326Z,86.42
2023-01-12T02:20:12.793Z,87.49
2023-01-12T02:22:48.060Z,87.46
2023-01-12T02:25:26.906Z,88.55
2023-01-12T02:28:50.759Z,87.35
2023-01-12T02:31:42.066Z,86.62
2023-01-12T02:34:26.893Z,87.26
2023-01-12T02:37:00.854Z,86.79
2023-01-12T02:39:44.982Z,87.31
2023-01-12T02:42:42.110Z,87.24
2023-01-12T02:45:47.923Z,87.12
2023-01-12T02:48:26.023Z,88.02
2023-01-12T02:51:05.485Z,87.34
2023-01-12T02:53:50.171Z,87.55
2023-01-12T02:56:25.228Z,86.22
2023-01-12T02:58:56.478Z,86.01
2023-01-12T03:01:26.430Z,84.47
2023-01-12T03:04:00.396Z,84.38
2023-01-12T03:06:41.731Z,84.44
2023-01-12T03:09:08.756Z,84.69
2023-01-12T03:11:40.295Z,85.73
2023-01-12T03:14:09.744Z,86.21
2023-01-12T03:16:39.045Z,84.49
2023-01-12T03:19:09.709Z,84.37
2023-01-12T03:21:40.326Z,84.68
2023-01-12T03:24:14.361Z,84.47
2023-01-12T03:26:49.233Z,84.62
2023-01-12T03:29:37.745Z,84.80
2023-01-12T03:32:04.843Z,84.51
2023-01-12T03:34:33.299Z,85.37
2023-01-12T03:37:31.058Z,85.76
2023-01-12T03:40:19.056Z,84.89
2023-01-12T03:43:13.395Z,85.85
2023-01-12T03:45:50.038Z,85.14
2023-01-12T03:48:29.895Z,84.33
2023-01-12T03:51:10.458Z,84.22
2023-01-12T03:53:40.016Z,84.49
2023-01-12T03:56:09.285Z,83.91
2023-01-12T03:58:36.859Z,83.57
2023-01-12T04:01:05.011Z,84.10
2023-01-12T04:03:31.864Z,83.52
2023-01-12T04:05:58.668Z,83.65
2023-01-12T04:08:25.463Z,84.32
2023-01-12T04:10:52.174Z,83.90
2023-01-12T04:13:18.947Z,83.77
2023-01-12T04:15:47.044Z,83.42
2023-01-12T04:18:13.877Z,83.49
2023-01-12T04:20:41.043Z,84.11
2023-01-12T04:23:08.114Z,83.29
2023-01-12T04:25:35.617Z,82.84
2023-01-12T04:28:02.660Z,82.66
2023-01-12T04:30:31.693Z,82.17
2023-01-12T04:33:01.263Z,82.41
2023-01-12T04:35:28.040Z,82.67
2023-01-12T04:37:54.995Z,82.33
2023-01-12T04:40:21.859Z,82.25
2023-01-12T04:43:07.172Z,81.78
2023-01-12T04:45:37.174Z,82.73
2023-01-12T04:48:12.009Z,83.39
2023-01-12T04:50:40.246Z,82.72
2023-01-12T04:53:09.503Z,82.21
2023-01-12T04:55:38.002Z,82.72
2023-01-12T04:58:04.818Z,82.21
2023-01-12T05:00:31.861Z,81.28
2023-01-12T05:03:02.018Z,81.62
2023-01-12T05:05:30.451Z,82.24
2023-01-12T05:08:23.360Z,82.12
2023-01-12T05:10:53.482Z,81.52
2023-01-12T05:13:21.402Z,81.67
2023-01-12T05:15:48.068Z,81.79
2023-01-12T05:18:15.498Z,82.04
2023-01-12T05:20:42.235Z,82.35
2023-01-12T05:23:09.030Z,83.25
2023-01-12T05:25:35.742Z,83.85
2023-01-12T05:28:02.790Z,84.85
2023-01-12T05:30:31.943Z,84.98
2023-01-12T05:32:59.141Z,85.44
2023-01-12T05:35:26.041Z,85.41
2023-01-12T05:37:55.985Z,85.43
2023-01-12T05:40:22.809Z,85.67
2023-01-12T05:43:11.145Z,86.63
2023-01-12T05:45:38.127Z,86.59
2023-01-12T05:48:05.580Z,86.55
2023-01-12T05:50:32.477Z,86.84
2023-01-12T05:52:59.235Z,87.11
2023-01-12T05:55:26.155Z,86.88
2023-01-12T05:57:52.877Z,87.33
2023-01-12T06:00:19.949Z,87.48
2023-01-12T06:02:46.883Z,87.84
2023-01-12T06:05:13.798Z,88.47
2023-01-12T06:07:40.537Z,87.51
2023-01-12T06:10:07.882Z,87.92
2023-01-12T06:12:53.543Z,88.05
2023-01-12T06:15:20.346Z,87.60
2023-01-12T06:17:47.316Z,87.66
2023-01-12T06:20:16.987Z,87.25
2023-01-12T06:22:45.037Z,87.46
2023-01-12T06:25:15.145Z,87.59
2023-01-12T06:27:42.165Z,87.39
2023-01-12T06:30:09.802Z,87.33
2023-01-12T06:32:37.002Z,87.71
2023-01-12T06:35:18.009Z,87.39
2023-01-12T06:37:45.653Z,87.54
2023-01-12T06:40:12.949Z,86.59
2023-01-12T06:42:41.990Z,86.96
2023-01-12T06:45:10.336Z,86.92
2023-01-12T06:47:48.658Z,86.99
2023-01-12T06:50:16.120Z,86.97
2023-01-12T06:52:42.942Z,87.19
2023-01-12T06:55:10.040Z,87.24
2023-01-12T06:57:36.866Z,86.90
2023-01-12T07:00:06.171Z,86.96
2023-01-12T07:02:33.249Z,87.02
2023-01-12T07:05:00.062Z,86.74
2023-01-12T07:07:26.947Z,86.92
2023-01-12T07:09:53.741Z,87.07
2023-01-12T07:12:20.746Z,86.84
2023-01-12T07:14:47.480Z,86.40
2023-01-12T07:17:14.530Z,86.64
2023-01-12T07:19:41.711Z,86.48
2023-01-12T07:22:08.698Z,86.65
2023-01-12T07:24:35.584Z,86.61
2023-01-12T07:27:02.360Z,86.34
2023-01-12T07:29:29.229Z,86.48
2023-01-12T07:31:56.062Z,86.69
2023-01-12T07:34:22.896Z,86.14
2023-01-12T07:36:50.976Z,85.30
2023-01-12T07:39:17.896Z,85.72
2023-01-12T07:42:03.453Z,85.26
2023-01-12T07:44:30.226Z,85.31
2023-01-12T07:46:57.022Z,85.23
2023-01-12T07:49:23.811Z,85.62
2023-01-12T07:51:53.166Z,85.53
2023-01-12T07:54:20.221Z,85.34
2023-01-12T07:56:47.035Z,84.83
2023-01-12T07:59:14.326Z,85.05
2023-01-12T08:01:41.371Z,85.07
2023-01-12T08:04:08.213Z,85.63
2023-01-12T08:06:35.304Z,86.17
2023-01-12T08:09:02.516Z,85.80
2023-01-12T08:11:30.037Z,85.14
2023-01-12T08:13:58.099Z,85.06
2023-01-12T08:16:46.648Z,85.14
2023-01-12T08:19:18.586Z,85.10
2023-01-12T08:21:50.856Z,84.62
2023-01-12T08:24:23.508Z,84.76
2023-01-12T08:26:56.480Z,85.10
2023-01-12T08:29:30.106Z,84.58
2023-01-12T08:32:03.739Z,84.76
2023-01-12T08:34:32.922Z,84.59
2023-01-12T08:37:05.570Z,84.58
2023-01-12T08:39:35.171Z,84.30
2023-01-12T08:42:02.503Z,85.00
2023-01-12T08:44:35.988Z,84.68
2023-01-12T08:47:04.661Z,84.73
2023-01-12T08:49:33.143Z,84.72
2023-01-12T08:52:00.311Z,84.86
2023-01-12T08:54:27.242Z,84.97
2023-01-12T08:56:54.785Z,85.17
2023-01-12T08:59:22.403Z,85.09
2023-01-12T09:01:49.216Z,84.93
2023-01-12T09:04:16.197Z,85.23
2023-01-12T09:06:44.680Z,86.50
2023-01-12T09:09:15.526Z,85.78
2023-01-12T09:11:43.435Z,85.90
2023-01-12T09:14:11.391Z,85.86
2023-01-12T09:16:38.164Z,85.51
2023-01-12T09:19:05.904Z,85.70
2023-01-12T09:21:35.864Z,85.93
2023-01-12T09:24:02.824Z,84.86
2023-01-12T09:26:32.245Z,84.83
2023-01-12T09:29:00.548Z,84.70
2023-01-12T09:31:29.199Z,84.08
2023-01-12T09:33:56.332Z,83.09
2023-01-12T09:36:32.354Z,84.57
2023-01-12T09:38:59.598Z,82.45
2023-01-12T09:42:06.872Z,82.49
2023-01-12T09:44:57.809Z,83.23
2023-01-12T09:47:34.397Z,81.29
2023-01-12T09:50:14.047Z,81.53
2023-01-12T09:52:47.036Z,81.84
2023-01-12T09:55:20.548Z,80.83
2023-01-12T09:57:53.262Z,80.49
2023-01-12T10:00:21.102Z,80.83
2023-01-12T10:03:02.814Z,81.03
2023-01-12T10:05:55.722Z,80.53
2023-01-12T10:08:34.190Z,79.80
2023-01-12T10:11:03.883Z,79.97
2023-01-12T10:14:02.411Z,79.21
2023-01-12T10:16:38.476Z,81.04
2023-01-12T10:19:25.359Z,79.33
2023-01-12T10:21:53.405Z,78.25
2023-01-12T10:24:25.584Z,78.57
2023-01-12T10:27:01.113Z,78.21
2023-01-12T10:29:30.575Z,78.11
2023-01-12T10:31:57.855Z,77.75
2023-01-12T10:34:24.725Z,77.60
2023-01-12T10:36:57.944Z,76.44
2023-01-12T10:39:32.636Z,76.55
2023-01-12T10:42:43.600Z,76.50
2023-01-12T10:45:13.510Z,76.74
2023-01-12T10:47:41.922Z,77.48
2023-01-12T10:50:23.788Z,75.51
2023-01-12T10:53:08.403Z,76.00
2023-01-12T10:55:39.720Z,75.71
2023-01-12T10:58:20.709Z,76.59
2023-01-12T11:00:53.641Z,76.05
2023-01-12T11:03:32.782Z,76.32
2023-01-12T11:06:16.861Z,77.12
2023-01-12T11:08:43.629Z,77.34
2023-01-12T11:11:24.973Z,77.45
2023-01-12T11:13:56.393Z,76.52
2023-01-12T11:16:35.154Z,76.50
2023-01-12T11:19:21.745Z,76.66
2023-01-12T11:21:53.882Z,74.90
2023-01-12T11:24:32.794Z,74.58
2023-01-12T11:27:13.936Z,73.15
2023-01-12T11:29:49.196Z,72.86
2023-01-12T11:32:20.961Z,73.77
2023-01-12T11:34:56.849Z,72.05
2023-01-12T11:37:24.299Z,71.64
2023-01-12T11:40:00.329Z,71.49
2023-01-12T11:42:49.872Z,71.13
2023-01-12T11:45:25.564Z,71.89
2023-01-12T11:48:02.454Z,74.29
2023-01-12T11:50:35.792Z,73.35
2023-01-12T11:53:05.782Z,74.13
2023-01-12T11:56:10.120Z,73.83
2023-01-12T11:58:56.265Z,74.53
2023-01-12T12:01:44.468Z,73.33
2023-01-12T12:04:11.328Z,73.04
2023-01-12T12:07:03.551Z,74.40
2023-01-12T12:09:57.936Z,72.59
2023-01-12T12:13:03.026Z,73.66
2023-01-12T12:15:54.662Z,72.92
2023-01-12T12:18:34.403Z,72.85
2023-01-12T12:21:40.143Z,73.08
2023-01-12T12:24:43.396Z,73.44
2023-01-12T12:27:13.350Z,74.30
2023-01-12T12:30:17.837Z,74.49
2023-01-12T12:32:55.541Z,74.16
2023-01-12T12:35:28.258Z,74.51
2023-01-12T12:38:15.219Z,74.10
2023-01-12T12:41:13.131Z,73.73
2023-01-12T12:43:58.461Z,74.09
2023-01-12T12:46:40.475Z,74.41
2023-01-12T12:49:12.941Z,74.46
2023-01-12T12:51:41.648Z,73.91
2023-01-12T12:54:17.007Z,73.34
2023-01-12T12:56:45.449Z,72.57
2023-01-12T12:59:31.064Z,72.36
2023-01-12T13:02:02.606Z,71.63
2023-01-12T13:04:46.173Z,71.58
2023-01-12T13:07:22.640Z,71.69
2023-01-12T13:09:50.305Z,71.49
2023-01-12T13:12:20.225Z,72.73
2023-01-12T13:15:26.925Z,72.70
2023-01-12T13:17:55.143Z,72.25
2023-01-12T13:20:37.141Z,72.29
2023-01-12T13:23:24.588Z,73.09
2023-01-12T13:25:56.879Z,73.49
2023-01-12T13:28:23.722Z,73.88
2023-01-12T13:30:54.819Z,73.34
2023-01-12T13:33:27.524Z,74.02
2023-01-12T13:35:55.820Z,73.70
2023-01-12T13:38:44.268Z,74.21
2023-01-12T13:41:14.174Z,74.17
2023-01-12T13:43:55.484Z,73.85
2023-01-12T13:46:27.460Z,74.57
2023-01-12T13:48:55.977Z,74.64
2023-01-12T13:51:33.503Z,73.83
2023-01-12T13:54:06.839Z,73.67
2023-01-12T13:56:35.264Z,74.27
2023-01-12T13:59:05.217Z,74.62
2023-01-12T14:01:34.838Z,74.84
2023-01-12T14:04:36.457Z,74.74
2023-01-12T14:07:39.801Z,75.50
2023-01-12T14:10:39.389Z,75.99
2023-01-12T14:13:47.366Z,75.94
2023-01-12T14:16:35.347Z,75.74
2023-01-12T14:20:09.231Z,75.73
2023-01-12T14:22:40.305Z,75.76
2023-01-12T14:25:14.612Z,75.92
2023-01-12T14:27:58.525Z,76.95
2023-01-12T14:30:32.589Z,76.08
2023-01-12T14:32:59.459Z,76.15
2023-01-12T14:35:26.598Z,76.09
2023-01-12T14:37:59.657Z,76.05
2023-01-12T14:40:31.032Z,75.96
2023-01-12T14:43:39.329Z,75.92
2023-01-12T14:46:24.709Z,76.16
2023-01-12T14:49:03.507Z,76.11
2023-01-12T14:51:36.273Z,76.29
2023-01-12T14:54:07.861Z,76.35
2023-01-12T14:56:50.963Z,76.19
2023-01-12T14:59:24.814Z,77.03
2023-01-12T15:02:14.907Z,77.17
2023-01-12T15:05:10.588Z,77.05
2023-01-12T15:07:52.785Z,77.27
2023-01-12T15:10:19.617Z,77.42
2023-01-12T15:12:54.835Z,77.92
2023-01-12T15:15:51.125Z,77.87
2023-01-12T15:18:37.646Z,78.67
2023-01-12T15:21:23.339Z,77.91
2023-01-12T15:24:08.869Z,78.27
2023-01-12T15:26:35.708Z,78.54
2023-01-12T15:29:02.516Z,78.54
2023-01-12T15:31:33.497Z,78.62
2023-01-12T15:34:01.231Z,78.46
2023-01-12T15:36:28.600Z,79.05
2023-01-12T15:38:55.543Z,78.82
2023-01-12T15:41:49.292Z,78.98
2023-01-12T15:44:21.170Z,79.30
2023-01-12T15:46:48.779Z,79.44
2023-01-12T15:49:16.227Z,79.14
2023-01-12T15:51:47.630Z,79.18
2023-01-12T15:54:18.331Z,79.46
2023-01-12T15:56:45.640Z,79.42
2023-01-12T15:59:12.433Z,79.64
2023-01-12T16:01:45.419Z,79.49
2023-01-12T16:04:42.210Z,79.88
2023-01-12T16:07:10.074Z,79.95
2023-01-12T16:09:36.761Z,79.48
2023-01-12T16:12:03.739Z,79.29
2023-01-12T16:14:30.635Z,79.19
2023-01-12T16:16:57.356Z,79.52
2023-01-12T16:19:24.271Z,79.38
2023-01-12T16:21:55.104Z,79.45
2023-01-12T16:24:26.400Z,79.68
2023-01-12T16:26:53.298Z,78.97
2023-01-12T16:29:24.124Z,79.12
2023-01-12T16:31:51.351Z,79.37
2023-01-12T16:34:22.593Z,79.55
2023-01-12T16:36:49.836Z,79.40
2023-01-12T16:39:16.597Z,79.49
2023-01-12T16:41:48.396Z,79.07
2023-01-12T16:44:15.674Z,79.36
2023-01-12T16:46:42.760Z,79.41
2023-01-12T16:49:09.703Z,79.85
2023-01-12T16:51:36.608Z,79.82
2023-01-12T16:54:04.735Z,80.50
2023-01-12T16:56:31.947Z,79.95
2023-01-12T16:58:58.777Z,80.17
2023-01-12T17:01:28.673Z,80.66
2023-01-12T17:03:58.357Z,80.66
2023-01-12T17:06:27.189Z,80.52
2023-01-12T17:08:54.960Z,80.05
2023-01-12T17:11:29.460Z,79.91
2023-01-12T17:14:22.834Z,80.20
2023-01-12T17:16:56.520Z,79.65
2023-01-12T17:19:28.056Z,79.45
2023-01-12T17:21:58.043Z,79.76
2023-01-12T17:24:26.294Z,79.86
2023-01-12T17:26:56.331Z,79.37
2023-01-12T17:29:27.053Z,79.69
2023-01-12T17:32:09.653Z,79.24
2023-01-12T17:34:38.861Z,79.46
2023-01-12T17:37:08.532Z,80.20
2023-01-12T17:39:39.988Z,79.33
2023-01-12T17:42:31.761Z,79.21
2023-01-12T17:44:58.679Z,78.93
2023-01-12T17:47:25.520Z,78.91
2023-01-12T17:49:54.115Z,78.74
2023-01-12T17:52:30.191Z,79.02
2023-01-12T17:55:00.649Z,79.08
2023-01-12T17:57:29.700Z,79.30
2023-01-12T17:59:56.552Z,79.33
2023-01-12T18:02:23.465Z,79.41
2023-01-12T18:04:53.394Z,79.09
2023-01-12T18:07:20.226Z,78.98
2023-01-12T18:09:48.099Z,78.90
2023-01-12T18:12:16.400Z,78.73
2023-01-12T18:14:43.411Z,79.00
2023-01-12T18:17:11.160Z,79.19
2023-01-12T18:19:42.429Z,79.29
2023-01-12T18:22:11.063Z,79.68
2023-01-12T18:24:38.319Z,79.71
2023-01-12T18:27:05.435Z,79.96
2023-01-12T18:29:32.467Z,80.20
2023-01-12T18:31:59.295Z,80.40
2023-01-12T18:34:26.935Z,80.18
2023-01-12T18:36:53.802Z,79.95
2023-01-12T18:39:21.093Z,79.85
2023-01-12T18:42:07.626Z,80.00
2023-01-12T18:44:35.054Z,80.00
2023-01-12T18:47:22.559Z,79.69
2023-01-12T18:49:49.449Z,79.57
2023-01-12T18:52:36.558Z,78.96
2023-01-12T18:55:04.964Z,79.57
2023-01-12T18:57:33.750Z,79.18
2023-01-12T19:00:15.832Z,79.61
2023-01-12T19:02:43.470Z,79.46
2023-01-12T19:05:34.389Z,79.51
2023-01-12T19:08:01.323Z,79.68
2023-01-12T19:10:29.261Z,79.72
2023-01-12T19:13:15.898Z,79.51
2023-01-12T19:16:01.445Z,79.07
2023-01-12T19:18:28.541Z,79.13
2023-01-12T19:21:17.659Z,78.95
2023-01-12T19:24:02.969Z,78.79
2023-01-12T19:26:51.509Z,78.73
2023-01-12T19:29:18.416Z,79.02
2023-01-12T19:31:45.355Z,79.04
2023-01-12T19:34:12.173Z,79.21
2023-01-12T19:36:38.919Z,78.85
2023-01-12T19:39:07.584Z,78.47
2023-01-12T19:41:53.010Z,78.88
2023-01-12T19:44:20.601Z,78.86
2023-01-12T19:46:48.329Z,78.50
2023-01-12T19:49:17.430Z,78.61
2023-01-12T19:51:46.913Z,78.19
2023-01-12T19:54:14.615Z,77.98
2023-01-12T19:56:46.548Z,78.17
2023-01-12T19:59:14.187Z,77.48
2023-01-12T20:01:41.205Z,77.14
2023-01-12T20:04:15.823Z,77.63
2023-01-12T20:06:44.742Z,77.72
2023-01-12T20:09:12.261Z,76.99
2023-01-12T20:11:39.155Z,77.56
2023-01-12T20:14:07.726Z,77.53
2023-01-12T20:16:47.582Z,77.91
2023-01-12T20:19:14.466Z,78.15
2023-01-12T20:21:41.247Z,78.12
2023-01-12T20:24:09.354Z,77.86
2023-01-12T20:26:36.369Z,77.73
2023-01-12T20:29:03.446Z,77.73
2023-01-12T20:31:30.255Z,77.71
2023-01-12T20:33:57.210Z,77.63
2023-01-12T20:36:25.169Z,77.42
2023-01-12T20:38:52.389Z,77.44
2023-01-12T20:41:19.726Z,77.68
2023-01-12T20:43:46.715Z,77.90
2023-01-12T20:46:14.514Z,77.76
2023-01-12T20:48:41.756Z,77.91
2023-01-12T20:51:10.532Z,78.32
2023-01-12T20:53:38.403Z,78.29
2023-01-12T20:56:08.721Z,78.47
2023-01-12T20:58:36.121Z,78.08
2023-01-12T21:01:08.679Z,78.44
2023-01-12T21:03:35.544Z,78.50
2023-01-12T21:06:02.551Z,78.21
2023-01-12T21:08:29.531Z,78.08
2023-01-12T21:10:58.513Z,78.16
2023-01-12T21:13:25.263Z,78.14
2023-01-12T21:16:02.802Z,78.21
2023-01-12T21:18:30.831Z,77.84
2023-01-12T21:20:58.042Z,77.95
2023-01-12T21:23:25.916Z,78.32
2023-01-12T21:25:52.758Z,79.14
2023-01-12T21:28:19.705Z,78.62
2023-01-12T21:30:46.581Z,78.38
2023-01-12T21:33:13.846Z,78.32
2023-01-12T21:35:42.171Z,78.07
2023-01-12T21:38:09.024Z,78.12
2023-01-12T21:40:38.070Z,78.18
2023-01-12T21:43:12.241Z,78.05
2023-01-12T21:45:43.737Z,77.93
2023-01-12T21:48:11.924Z,77.87
2023-01-12T21:50:39.030Z,77.78
2023-01-12T21:53:06.887Z,77.99
2023-01-12T21:55:34.986Z,77.46
2023-01-12T21:58:02.043Z,77.36
2023-01-12T22:00:29.525Z,77.44
2023-01-12T22:02:57.529Z,77.95
2023-01-12T22:05:24.569Z,77.46
2023-01-12T22:07:52.117Z,77.45
2023-01-12T22:10:19.109Z,77.25
2023-01-12T22:12:47.491Z,77.26
2023-01-12T22:15:17.316Z,77.37
2023-01-12T22:17:45.012Z,77.04
2023-01-12T22:20:12.941Z,77.03
2023-01-12T22:22:41.082Z,77.52
2023-01-12T22:25:09.467Z,77.46
2023-01-12T22:27:36.857Z,76.56
2023-01-12T22:30:08.828Z,76.41
2023-01-12T22:32:35.722Z,76.48
2023-01-12T22:35:02.536Z,76.93
2023-01-12T22:37:30.031Z,76.79
2023-01-12T22:39:56.937Z,76.85
2023-01-12T22:42:43.840Z,77.26
2023-01-12T22:45:10.865Z,76.68
2023-01-12T22:47:47.609Z,76.93
2023-01-12T22:50:14.744Z,77.03
2023-01-12T22:52:41.805Z,76.99
2023-01-12T22:55:09.515Z,77.30
2023-01-12T22:57:36.835Z,77.22
2023-01-12T23:00:04.662Z,77.31
2023-01-12T23:02:50.606Z,77.71
2023-01-12T23:05:17.746Z,77.67
2023-01-12T23:07:44.459Z,77.41
2023-01-12T23:10:11.149Z,77.39
2023-01-12T23:12:37.886Z,77.68
2023-01-12T23:15:05.101Z,78.08
2023-01-12T23:17:33.424Z,77.78
2023-01-12T23:20:01.422Z,77.67
2023-01-12T23:22:31.475Z,78.02
2023-01-12T23:24:58.163Z,78.09
2023-01-12T23:27:24.891Z,78.13
2023-01-12T23:29:51.636Z,78.16
2023-01-12T23:32:18.308Z,78.02
2023-01-12T23:34:45.219Z,78.26
2023-01-12T23:37:12.151Z,78.38
2023-01-12T23:39:38.900Z,78.38
2023-01-12T23:42:05.617Z,78.39
2023-01-12T23:44:33.268Z,78.17
2023-01-12T23:47:02.893Z,78.11
2023-01-12T23:49:29.651Z,78.25
2023-01-12T23:51:56.363Z,78.24
2023-01-12T23:54:23.102Z,78.41
2023-01-12T23:56:52.953Z,78.30
2023-01-12T23:59:19.702Z,78.42
